createdAt,value
2022-11-15T00:00:43.438Z,100.00
2022-11-15T00:02:05.810Z,100.00
2022-11-15T00:03:28.876Z,100.00
2022-11-15T00:04:50.865Z,100.00
2022-11-15T00:06:12.364Z,100.00
2022-11-15T00:07:54.692Z,100.00
2022-11-15T00:09:15.742Z,100.00
2022-11-15T00:10:36.606Z,100.00
2022-11-15T00:11:58.056Z,100.00
2022-11-15T00:13:18.705Z,100.00
2022-11-15T00:14:40.410Z,100.00
2022-11-15T00:16:02.790Z,100.00
2022-11-15T00:17:24.507Z,100.00
2022-11-15T00:18:50.700Z,100.00
2022-11-15T00:20:12.616Z,100.00
2022-11-15T00:21:34.096Z,100.00
2022-11-15T00:22:54.808Z,100.00
2022-11-15T00:24:16.456Z,100.00
2022-11-15T00:25:37.559Z,100.00
2022-11-15T00:26:59.725Z,100.00
2022-11-15T00:28:21.567Z,100.00
2022-11-15T00:29:44.254Z,100.00
2022-11-15T00:31:08.173Z,100.00
2022-11-15T00:32:33.523Z,100.00
2022-11-15T00:33:56.710Z,100.00
2022-11-15T00:35:17.967Z,100.00
2022-11-15T00:36:39.659Z,100.00
2022-11-15T00:38:00.524Z,100.00
2022-11-15T00:39:22.078Z,100.00
2022-11-15T00:40:44.058Z,100.00
2022-11-15T00:42:04.979Z,100.00
2022-11-15T00:43:26.471Z,100.00
2022-11-15T00:44:46.901Z,100.00
2022-11-15T00:46:09.456Z,100.00
2022-11-15T00:47:30.120Z,100.00
2022-11-15T00:48:51.848Z,100.00
2022-11-15T00:50:15.316Z,100.00
2022-11-15T00:51:37.977Z,100.00
2022-11-15T00:52:59.511Z,100.00
2022-11-15T00:54:21.246Z,100.00
2022-11-15T00:55:42.798Z,100.00
2022-11-15T00:57:04.883Z,100.00
2022-11-15T00:58:26.392Z,100.00
2022-11-15T00:59:47.834Z,100.00
2022-11-15T01:01:09.971Z,100.00
2022-11-15T01:02:31.856Z,100.00
2022-11-15T01:03:52.468Z,100.00
2022-11-15T01:05:15.294Z,100.00
2022-11-15T01:06:36.661Z,100.00
2022-11-15T01:07:57.372Z,100.00
2022-11-15T01:09:19.039Z,100.00
2022-11-15T01:10:39.477Z,100.00
2022-11-15T01:12:01.114Z,100.00
2022-11-15T01:13:21.664Z,100.00
2022-11-15T01:14:43.283Z,100.00
2022-11-15T01:16:07.843Z,100.00
2022-11-15T01:17:29.393Z,100.00
2022-11-15T01:18:51.241Z,100.00
2022-11-15T01:20:14.132Z,100.00
2022-11-15T01:21:35.840Z,100.00
2022-11-15T01:22:57.453Z,100.00
2022-11-15T01:24:18.938Z,100.00
2022-11-15T01:25:39.546Z,100.00
2022-11-15T01:27:01.156Z,100.00
2022-11-15T01:28:21.473Z,100.00
2022-11-15T01:29:43.583Z,100.00
2022-11-15T01:31:07.597Z,100.00
2022-11-15T01:32:29.134Z,100.00
2022-11-15T01:33:50.306Z,100.00
2022-11-15T01:35:11.956Z,100.00
2022-11-15T01:36:34.783Z,100.00
2022-11-15T01:37:55.283Z,100.00
2022-11-15T01:39:17.653Z,100.00
2022-11-15T01:40:39.074Z,100.00
2022-11-15T01:42:00.724Z,100.00
2022-11-15T01:43:23.191Z,100.00
2022-11-15T01:44:48.261Z,100.00
2022-11-15T01:46:26.070Z,100.00
2022-11-15T01:47:49.812Z,100.00
2022-11-15T01:49:16.671Z,100.00
2022-11-15T01:50:37.225Z,100.00
2022-11-15T01:52:02.875Z,100.00
2022-11-15T01:53:27.114Z,100.00
2022-11-15T01:54:50.058Z,100.00
2022-11-15T01:56:15.512Z,100.00
2022-11-15T01:57:37.566Z,100.00
2022-11-15T01:59:03.257Z,100.00
2022-11-15T02:00:24.862Z,100.00
2022-11-15T02:01:46.701Z,100.00
2022-11-15T02:03:08.518Z,100.00
2022-11-15T02:04:30.483Z,100.00
2022-11-15T02:05:53.062Z,100.00
2022-11-15T02:07:18.786Z,100.00
2022-11-15T02:08:39.707Z,100.00
2022-11-15T02:10:06.366Z,100.00
2022-11-15T02:11:27.425Z,100.00
2022-11-15T02:12:50.412Z,100.00
2022-11-15T02:14:12.731Z,100.00
2022-11-15T02:15:42.526Z,100.00
2022-11-15T02:17:10.885Z,100.00
2022-11-15T02:18:36.209Z,100.00
2022-11-15T02:20:33.190Z,100.00
2022-11-15T02:22:10.133Z,100.00
2022-11-15T02:24:05.524Z,100.00
2022-11-15T02:25:39.802Z,100.00
2022-11-15T02:27:51.831Z,100.00
2022-11-15T02:29:21.389Z,100.00
2022-11-15T02:30:49.870Z,100.00
2022-11-15T02:32:16.896Z,100.00
2022-11-15T02:33:46.906Z,100.00
2022-11-15T02:35:16.920Z,100.00
2022-11-15T02:36:45.764Z,100.00
2022-11-15T02:38:12.981Z,100.00
2022-11-15T02:39:42.080Z,100.00
2022-11-15T02:41:08.420Z,100.00
2022-11-15T02:42:52.948Z,100.00
2022-11-15T02:44:22.435Z,100.00
2022-11-15T02:45:49.360Z,100.00
2022-11-15T02:47:16.962Z,100.00
2022-11-15T02:48:38.021Z,100.00
2022-11-15T02:50:02.940Z,100.00
2022-11-15T02:51:23.778Z,100.00
2022-11-15T02:52:48.026Z,100.00
2022-11-15T02:54:12.311Z,100.00
2022-11-15T02:55:36.559Z,100.00
2022-11-15T02:57:03.100Z,100.00
2022-11-15T02:58:50.998Z,100.00
2022-11-15T03:00:17.117Z,100.00
2022-11-15T03:01:54.439Z,100.00
2022-11-15T03:03:31.348Z,100.00
2022-11-15T03:04:57.072Z,100.00
2022-11-15T03:06:26.984Z,100.00
2022-11-15T03:08:01.871Z,100.00
2022-11-15T03:09:36.145Z,100.00
2022-11-15T03:11:05.046Z,100.00
2022-11-15T03:12:30.247Z,100.00
2022-11-15T03:13:59.478Z,100.00
2022-11-15T03:15:25.957Z,100.00
2022-11-15T03:16:52.081Z,100.00
2022-11-15T03:18:21.626Z,100.00
2022-11-15T03:19:46.191Z,100.00
2022-11-15T03:21:10.249Z,100.00
2022-11-15T03:22:35.900Z,100.00
2022-11-15T03:24:00.493Z,100.00
2022-11-15T03:25:25.695Z,100.00
2022-11-15T03:26:50.189Z,100.00
2022-11-15T03:28:16.112Z,100.00
2022-11-15T03:29:41.194Z,100.00
2022-11-15T03:31:24.582Z,100.00
2022-11-15T03:32:49.872Z,100.00
2022-11-15T03:34:17.933Z,100.00
2022-11-15T03:35:42.675Z,100.00
2022-11-15T03:37:06.139Z,100.00
2022-11-15T03:38:29.246Z,100.00
2022-11-15T03:39:51.272Z,100.00
2022-11-15T03:41:19.291Z,100.00
2022-11-15T03:42:48.981Z,100.00
2022-11-15T03:44:17.556Z,100.00
2022-11-15T03:45:44.312Z,100.00
2022-11-15T03:47:10.642Z,100.00
2022-11-15T03:48:37.842Z,100.00
2022-11-15T03:50:02.584Z,100.00
2022-11-15T03:51:24.229Z,100.00
2022-11-15T03:52:47.702Z,100.00
2022-11-15T03:54:09.341Z,100.00
2022-11-15T03:55:29.687Z,100.00
2022-11-15T03:56:51.369Z,100.00
2022-11-15T03:58:12.842Z,100.00
2022-11-15T03:59:33.513Z,100.00
2022-11-15T04:00:55.168Z,100.00
2022-11-15T04:02:16.591Z,100.00
2022-11-15T04:03:39.649Z,100.00
2022-11-15T04:05:01.574Z,100.00
2022-11-15T04:06:23.175Z,100.00
2022-11-15T04:07:44.892Z,100.00
2022-11-15T04:09:05.639Z,100.00
2022-11-15T04:10:27.326Z,100.00
2022-11-15T04:11:47.851Z,100.00
2022-11-15T04:13:09.622Z,100.00
2022-11-15T04:14:30.248Z,100.00
2022-11-15T04:15:51.930Z,100.00
2022-11-15T04:17:12.322Z,100.00
2022-11-15T04:18:34.000Z,100.00
2022-11-15T04:20:14.567Z,100.00
2022-11-15T04:21:53.571Z,100.00
2022-11-15T04:23:35.069Z,100.00
2022-11-15T04:24:56.965Z,100.00
2022-11-15T04:26:20.430Z,100.00
2022-11-15T04:27:41.087Z,100.00
2022-11-15T04:29:20.247Z,100.00
2022-11-15T04:30:42.029Z,100.00
2022-11-15T04:32:02.578Z,100.00
2022-11-15T04:33:24.770Z,100.00
2022-11-15T04:34:45.461Z,100.00
2022-11-15T04:36:26.892Z,100.00
2022-11-15T04:37:49.585Z,100.00
2022-11-15T04:39:10.818Z,100.00
2022-11-15T04:40:32.063Z,100.00
2022-11-15T04:41:53.921Z,100.00
2022-11-15T04:43:15.445Z,100.00
2022-11-15T04:44:36.234Z,100.00
2022-11-15T04:45:58.109Z,100.00
2022-11-15T04:47:19.863Z,100.00
2022-11-15T04:48:41.610Z,100.00
2022-11-15T04:50:02.140Z,100.00
2022-11-15T04:51:25.225Z,100.00
2022-11-15T04:52:53.616Z,100.00
2022-11-15T04:54:14.211Z,100.00
2022-11-15T04:55:35.737Z,100.00
2022-11-15T04:56:56.236Z,100.00
2022-11-15T04:58:17.938Z,100.00
2022-11-15T04:59:39.262Z,100.00
2022-11-15T05:01:07.108Z,100.00
2022-11-15T05:02:49.367Z,100.00
2022-11-15T05:04:30.904Z,100.00
2022-11-15T05:05:51.555Z,100.00
2022-11-15T05:07:14.549Z,100.00
2022-11-15T05:08:35.223Z,100.00
2022-11-15T05:09:56.933Z,100.00
2022-11-15T05:11:17.824Z,100.00
2022-11-15T05:12:39.600Z,100.00
2022-11-15T05:13:59.874Z,100.00
2022-11-15T05:15:21.647Z,100.00
2022-11-15T05:16:43.234Z,100.00
2022-11-15T05:18:04.828Z,100.00
2022-11-15T05:19:26.137Z,100.00
2022-11-15T05:20:46.789Z,100.00
2022-11-15T05:22:08.461Z,100.00
2022-11-15T05:23:31.564Z,100.00
2022-11-15T05:24:52.696Z,100.00
2022-11-15T05:26:15.270Z,100.00
2022-11-15T05:27:37.247Z,100.00
2022-11-15T05:29:00.398Z,100.00
2022-11-15T05:30:22.255Z,100.00
2022-11-15T05:31:44.469Z,100.00
2022-11-15T05:33:05.199Z,100.00
2022-11-15T05:34:27.690Z,100.00
2022-11-15T05:35:55.933Z,100.00
2022-11-15T05:37:18.257Z,100.00
2022-11-15T05:38:41.520Z,100.00
2022-11-15T05:40:03.122Z,100.00
2022-11-15T05:41:32.278Z,100.00
2022-11-15T05:42:53.827Z,100.00
2022-11-15T05:44:19.193Z,100.00
2022-11-15T05:45:40.885Z,100.00
2022-11-15T05:47:02.402Z,100.00
2022-11-15T05:48:23.846Z,100.00
2022-11-15T05:49:47.576Z,100.00
2022-11-15T05:51:09.682Z,100.00
2022-11-15T05:52:33.585Z,100.00
2022-11-15T05:53:58.865Z,100.00
2022-11-15T05:55:20.529Z,100.00
2022-11-15T05:56:42.061Z,100.00
2022-11-15T05:58:03.561Z,100.00
2022-11-15T05:59:25.688Z,100.00
2022-11-15T06:00:47.838Z,100.00
2022-11-15T06:02:09.384Z,100.00
2022-11-15T06:03:31.793Z,100.00
2022-11-15T06:04:53.756Z,100.00
2022-11-15T06:06:16.594Z,100.00
2022-11-15T06:07:38.415Z,100.00
2022-11-15T06:09:01.151Z,100.00
2022-11-15T06:10:22.909Z,100.00
2022-11-15T06:11:44.347Z,100.00
2022-11-15T06:13:06.914Z,100.00
2022-11-15T06:14:28.849Z,100.00
2022-11-15T06:15:50.830Z,100.00
2022-11-15T06:17:12.044Z,100.00
2022-11-15T06:18:35.476Z,100.00
2022-11-15T06:19:57.079Z,100.00
2022-11-15T06:21:18.671Z,100.00
2022-11-15T06:22:39.206Z,100.00
2022-11-15T06:24:02.328Z,100.00
2022-11-15T06:25:23.012Z,100.00
2022-11-15T06:26:44.461Z,100.00
2022-11-15T06:28:05.440Z,100.00
2022-11-15T06:29:26.762Z,100.00
2022-11-15T06:30:53.002Z,100.00
2022-11-15T06:32:15.115Z,100.00
2022-11-15T06:33:36.995Z,100.00
2022-11-15T06:34:58.372Z,100.00
2022-11-15T06:36:20.261Z,100.00
2022-11-15T06:37:42.050Z,100.00
2022-11-15T06:39:05.586Z,100.00
2022-11-15T06:40:26.913Z,100.00
2022-11-15T06:41:48.414Z,100.00
2022-11-15T06:43:08.849Z,100.00
2022-11-15T06:44:30.454Z,100.00
2022-11-15T06:45:52.131Z,100.00
2022-11-15T06:47:13.437Z,100.00
2022-11-15T06:48:34.749Z,100.00
2022-11-15T06:49:56.647Z,100.00
2022-11-15T06:51:18.364Z,100.00
2022-11-15T06:52:39.621Z,100.00
2022-11-15T06:54:01.466Z,100.00
2022-11-15T06:55:24.729Z,100.00
2022-11-15T06:56:46.209Z,100.00
2022-11-15T06:58:07.912Z,100.00
2022-11-15T06:59:29.556Z,100.00
2022-11-15T07:00:51.436Z,100.00
2022-11-15T07:02:14.159Z,100.00
2022-11-15T07:03:37.856Z,100.00
2022-11-15T07:04:59.364Z,100.00
2022-11-15T07:06:20.838Z,100.00
2022-11-15T07:07:42.695Z,100.00
2022-11-15T07:09:04.685Z,100.00
2022-11-15T07:10:28.349Z,100.00
2022-11-15T07:11:50.202Z,100.00
2022-11-15T07:13:10.855Z,100.00
2022-11-15T07:14:32.201Z,100.00
2022-11-15T07:15:53.541Z,100.00
2022-11-15T07:17:14.966Z,100.00
2022-11-15T07:18:37.035Z,100.00
2022-11-15T07:19:58.348Z,100.00
2022-11-15T07:21:24.782Z,100.00
2022-11-15T07:22:49.533Z,100.00
2022-11-15T07:24:10.045Z,100.00
2022-11-15T07:25:32.791Z,100.00
2022-11-15T07:26:54.548Z,100.00
2022-11-15T07:28:16.364Z,100.00
2022-11-15T07:29:37.894Z,100.00
2022-11-15T07:30:59.379Z,100.00
2022-11-15T07:32:20.123Z,100.00
2022-11-15T07:33:41.768Z,100.00
2022-11-15T07:35:02.443Z,100.00
2022-11-15T07:36:24.263Z,100.00
2022-11-15T07:37:45.850Z,100.00
2022-11-15T07:39:07.331Z,100.00
2022-11-15T07:40:30.296Z,100.00
2022-11-15T07:42:13.437Z,100.00
2022-11-15T07:43:35.254Z,100.00
2022-11-15T07:44:57.159Z,100.00
2022-11-15T07:46:18.675Z,100.00
2022-11-15T07:47:40.316Z,100.00
2022-11-15T07:49:01.797Z,100.00
2022-11-15T07:50:24.598Z,100.00
2022-11-15T07:51:46.350Z,100.00
2022-11-15T07:53:08.087Z,100.00
2022-11-15T07:54:29.918Z,100.00
2022-11-15T07:55:51.358Z,100.00
2022-11-15T07:57:14.446Z,100.00
2022-11-15T07:58:36.184Z,100.00
2022-11-15T07:59:57.729Z,100.00
2022-11-15T08:01:19.287Z,100.00
2022-11-15T08:02:41.518Z,100.00
2022-11-15T08:04:03.126Z,100.00
2022-11-15T08:05:24.806Z,100.00
2022-11-15T08:06:46.271Z,100.00
2022-11-15T08:08:08.323Z,100.00
2022-11-15T08:09:29.929Z,100.00
2022-11-15T08:10:51.287Z,100.00
2022-11-15T08:12:14.542Z,100.00
2022-11-15T08:13:36.536Z,100.00
2022-11-15T08:14:58.224Z,100.00
2022-11-15T08:16:19.645Z,100.00
2022-11-15T08:17:41.333Z,100.00
2022-11-15T08:19:03.243Z,100.00
2022-11-15T08:20:25.372Z,100.00
2022-11-15T08:21:47.224Z,100.00
2022-11-15T08:23:09.753Z,100.00
2022-11-15T08:24:31.231Z,100.00
2022-11-15T08:25:52.676Z,100.00
2022-11-15T08:27:16.765Z,100.00
2022-11-15T08:28:38.843Z,100.00
2022-11-15T08:30:00.518Z,100.00
2022-11-15T08:31:22.272Z,100.00
2022-11-15T08:32:43.958Z,100.00
2022-11-15T08:34:06.115Z,100.00
2022-11-15T08:35:29.391Z,100.00
2022-11-15T08:36:51.250Z,100.00
2022-11-15T08:38:13.066Z,100.00
2022-11-15T08:39:34.764Z,100.00
2022-11-15T08:41:03.477Z,100.00
2022-11-15T08:42:26.687Z,100.00
2022-11-15T08:43:48.355Z,100.00
2022-11-15T08:45:11.045Z,100.00
2022-11-15T08:46:32.411Z,100.00
2022-11-15T08:47:54.721Z,100.00
2022-11-15T08:49:16.666Z,100.00
2022-11-15T08:50:38.262Z,100.00
2022-11-15T08:51:59.761Z,100.00
2022-11-15T08:53:21.496Z,100.00
2022-11-15T08:54:43.314Z,100.00
2022-11-15T08:56:08.790Z,100.00
2022-11-15T08:57:32.359Z,100.00
2022-11-15T08:58:53.855Z,100.00
2022-11-15T09:00:16.688Z,100.00
2022-11-15T09:01:38.507Z,100.00
2022-11-15T09:03:00.293Z,100.00
2022-11-15T09:04:21.991Z,100.00
2022-11-15T09:05:43.868Z,100.00
2022-11-15T09:07:05.295Z,100.00
2022-11-15T09:10:10.540Z,100.00
2022-11-15T09:11:32.285Z,100.00
2022-11-15T09:12:55.372Z,100.00
2022-11-15T09:14:17.314Z,100.00
2022-11-15T09:15:38.718Z,100.00
2022-11-15T09:17:00.279Z,100.00
2022-11-15T09:18:23.369Z,100.00
2022-11-15T09:19:45.143Z,100.00
2022-11-15T09:21:06.910Z,100.00
2022-11-15T09:22:29.438Z,100.00
2022-11-15T09:23:52.876Z,100.00
2022-11-15T09:25:14.224Z,100.00
2022-11-15T09:26:36.040Z,100.00
2022-11-15T09:27:59.165Z,100.00
2022-11-15T09:29:20.864Z,100.00
2022-11-15T09:30:42.403Z,100.00
2022-11-15T09:32:04.144Z,100.00
2022-11-15T09:33:25.887Z,100.00
2022-11-15T09:34:47.273Z,100.00
2022-11-15T09:36:11.142Z,100.00
2022-11-15T09:37:33.973Z,100.00
2022-11-15T09:38:55.715Z,100.00
2022-11-15T09:40:20.283Z,100.00
2022-11-15T09:42:11.833Z,100.00
2022-11-15T09:43:44.551Z,100.00
2022-11-15T09:45:17.035Z,100.00
2022-11-15T09:46:47.927Z,100.00
2022-11-15T09:48:14.972Z,100.00
2022-11-15T09:49:38.017Z,100.00
2022-11-15T09:50:54.824Z,100.00
2022-11-15T09:51:58.007Z,100.00
2022-11-15T09:53:01.178Z,100.00
2022-11-15T09:55:45.212Z,100.00
2022-11-15T09:56:49.054Z,100.00
2022-11-15T09:58:02.065Z,100.00
2022-11-15T09:59:22.934Z,100.00
2022-11-15T10:00:50.039Z,100.00
2022-11-15T10:02:04.122Z,100.00
2022-11-15T10:03:13.645Z,100.00
2022-11-15T10:04:17.662Z,100.00
2022-11-15T10:05:26.351Z,100.00
2022-11-15T10:06:30.257Z,100.00
2022-11-15T10:07:41.711Z,100.00
2022-11-15T10:08:56.062Z,100.00
2022-11-15T10:10:08.881Z,100.00
2022-11-15T10:12:40.880Z,100.00
2022-11-15T10:13:47.868Z,100.00
2022-11-15T10:14:59.006Z,100.00
2022-11-15T10:16:12.038Z,100.00
2022-11-15T10:17:44.570Z,100.00
2022-11-15T10:18:59.716Z,100.00
2022-11-15T10:20:14.387Z,100.00
2022-11-15T10:21:19.244Z,100.00
2022-11-15T10:22:30.196Z,100.00
2022-11-15T10:23:33.157Z,100.00
2022-11-15T10:24:40.536Z,100.00
2022-11-15T10:25:45.795Z,100.00
2022-11-15T10:26:48.834Z,100.00
2022-11-15T10:28:02.471Z,99.96
2022-11-15T10:29:05.819Z,99.96
2022-11-15T10:30:14.782Z,99.89
2022-11-15T10:31:42.492Z,100.00
2022-11-15T10:32:48.080Z,99.86
2022-11-15T10:33:51.545Z,99.98
2022-11-15T10:34:53.832Z,100.00
2022-11-15T10:36:22.609Z,100.00
2022-11-15T10:37:34.674Z,99.98
2022-11-15T10:38:54.381Z,100.00
2022-11-15T10:40:06.646Z,99.91
2022-11-15T10:41:09.296Z,100.00
2022-11-15T10:42:20.074Z,100.00
2022-11-15T10:43:23.031Z,100.00
2022-11-15T10:44:27.721Z,100.00
2022-11-15T10:45:33.824Z,99.90
2022-11-15T10:46:46.717Z,99.89
2022-11-15T10:47:50.750Z,99.91
2022-11-15T10:48:53.977Z,100.00
2022-11-15T10:50:03.306Z,100.00
2022-11-15T10:51:23.395Z,100.00
2022-11-15T10:52:26.292Z,100.00
2022-11-15T10:53:34.438Z,99.99
2022-11-15T10:54:40.356Z,100.00
2022-11-15T10:55:49.214Z,100.00
2022-11-15T10:56:54.267Z,100.00
2022-11-15T10:58:01.682Z,100.00
2022-11-15T10:59:03.943Z,100.00
2022-11-15T11:00:28.000Z,99.90
2022-11-15T11:01:32.536Z,100.00
2022-11-15T11:02:38.866Z,100.00
2022-11-15T11:03:43.056Z,100.00
2022-11-15T11:04:52.378Z,100.00
2022-11-15T11:06:06.626Z,99.98
2022-11-15T11:07:22.987Z,100.00
2022-11-15T11:08:27.085Z,99.80
2022-11-15T11:09:34.016Z,99.76
2022-11-15T11:10:51.173Z,99.97
2022-11-15T11:11:55.346Z,99.65
2022-11-15T11:13:14.256Z,99.37
2022-11-15T11:14:24.066Z,99.39
2022-11-15T11:15:30.628Z,99.26
2022-11-15T11:16:46.706Z,99.06
2022-11-15T11:18:00.087Z,99.11
2022-11-15T11:19:12.699Z,99.21
2022-11-15T11:20:22.876Z,99.38
2022-11-15T11:21:36.981Z,98.89
2022-11-15T11:22:55.090Z,99.24
2022-11-15T11:24:05.994Z,99.05
2022-11-15T11:25:24.991Z,98.92
2022-11-15T11:26:42.981Z,98.60
2022-11-15T11:27:57.632Z,98.69
2022-11-15T11:29:08.772Z,98.62
2022-11-15T11:30:17.458Z,98.39
2022-11-15T11:31:31.792Z,98.67
2022-11-15T11:33:12.145Z,98.61
2022-11-15T11:34:32.338Z,98.39
2022-11-15T11:35:43.331Z,98.82
2022-11-15T11:36:54.988Z,98.75
2022-11-15T11:38:16.222Z,98.93
2022-11-15T11:39:30.673Z,98.43
2022-11-15T11:40:39.655Z,98.50
2022-11-15T11:41:53.963Z,98.04
2022-11-15T11:43:02.536Z,98.07
2022-11-15T11:44:26.923Z,98.21
2022-11-15T11:45:58.991Z,98.03
2022-11-15T11:47:02.677Z,98.30
2022-11-15T11:48:23.027Z,98.19
2022-11-15T11:49:33.154Z,97.96
2022-11-15T11:50:40.054Z,98.25
2022-11-15T11:51:47.868Z,98.06
2022-11-15T11:53:03.738Z,97.86
2022-11-15T11:54:14.822Z,97.84
2022-11-15T11:55:22.758Z,98.09
2022-11-15T11:56:29.940Z,98.20
2022-11-15T11:57:43.672Z,98.13
2022-11-15T11:58:48.822Z,97.93
2022-11-15T11:59:58.635Z,97.67
2022-11-15T12:01:18.075Z,97.73
2022-11-15T12:02:30.106Z,97.53
2022-11-15T12:03:43.027Z,97.65
2022-11-15T12:04:52.007Z,97.46
2022-11-15T12:05:58.811Z,97.21
2022-11-15T12:07:04.708Z,97.55
2022-11-15T12:08:26.839Z,97.47
2022-11-15T12:09:36.044Z,97.31
2022-11-15T12:10:40.881Z,97.44
2022-11-15T12:11:54.040Z,97.61
2022-11-15T12:13:02.647Z,97.46
2022-11-15T12:14:12.691Z,97.19
2022-11-15T12:15:20.489Z,97.70
2022-11-15T12:16:28.673Z,97.52
2022-11-15T12:17:33.799Z,97.17
2022-11-15T12:18:39.440Z,97.23
2022-11-15T12:19:43.710Z,96.91
2022-11-15T12:20:58.093Z,96.89
2022-11-15T12:22:07.318Z,96.95
2022-11-15T12:23:15.146Z,96.85
2022-11-15T12:24:25.999Z,96.32
2022-11-15T12:25:34.985Z,96.37
2022-11-15T12:26:43.779Z,96.04
2022-11-15T12:27:51.671Z,96.10
2022-11-15T12:29:07.522Z,95.96
2022-11-15T12:30:16.166Z,95.75
2022-11-15T12:31:24.506Z,95.65
2022-11-15T12:32:31.682Z,95.38
2022-11-15T12:33:39.322Z,94.87
2022-11-15T12:34:44.776Z,94.60
2022-11-15T12:36:00.569Z,94.58
2022-11-15T12:37:24.214Z,94.38
2022-11-15T12:38:59.645Z,94.07
2022-11-15T12:40:19.279Z,94.17
2022-11-15T12:41:24.098Z,93.99
2022-11-15T12:42:44.384Z,93.76
2022-11-15T12:43:48.384Z,93.73
2022-11-15T12:45:01.301Z,93.86
2022-11-15T12:46:06.527Z,94.10
2022-11-15T12:47:25.748Z,93.83
2022-11-15T12:48:56.304Z,93.49
2022-11-15T12:49:59.525Z,93.88
2022-11-15T12:51:01.988Z,93.60
2022-11-15T12:52:10.571Z,93.79
2022-11-15T12:53:29.474Z,93.47
2022-11-15T12:55:11.886Z,93.68
2022-11-15T12:56:25.088Z,93.43
2022-11-15T12:57:44.437Z,93.47
2022-11-15T12:58:50.596Z,93.13
2022-11-15T12:59:55.992Z,92.94
2022-11-15T13:00:59.090Z,92.97
2022-11-15T13:02:01.602Z,92.76
2022-11-15T13:03:25.962Z,92.97
2022-11-15T13:04:31.298Z,92.68
2022-11-15T13:06:01.907Z,92.53
2022-11-15T13:07:08.557Z,92.28
2022-11-15T13:08:30.927Z,92.10
2022-11-15T13:09:53.364Z,91.70
2022-11-15T13:10:56.382Z,91.79
2022-11-15T13:12:02.686Z,91.54
2022-11-15T13:13:08.448Z,91.50
2022-11-15T13:14:43.058Z,91.73
2022-11-15T13:15:57.360Z,91.52
2022-11-15T13:16:59.909Z,91.58
2022-11-15T13:18:31.124Z,91.78
2022-11-15T13:19:34.504Z,91.98
2022-11-15T13:20:37.554Z,92.13
2022-11-15T13:22:20.173Z,92.17
2022-11-15T13:23:24.301Z,92.44
2022-11-15T13:24:27.515Z,92.11
2022-11-15T13:25:56.666Z,92.35
2022-11-15T13:27:01.291Z,92.28
2022-11-15T13:28:11.762Z,92.29
2022-11-15T13:29:19.682Z,92.09
2022-11-15T13:30:23.274Z,92.19
2022-11-15T13:31:29.879Z,91.98
2022-11-15T13:32:33.057Z,92.00
2022-11-15T13:33:38.843Z,92.05
2022-11-15T13:34:52.371Z,92.13
2022-11-15T13:35:58.848Z,92.08
2022-11-15T13:37:02.083Z,92.06
2022-11-15T13:38:05.894Z,91.99
2022-11-15T13:39:25.380Z,91.99
2022-11-15T13:40:31.416Z,91.90
2022-11-15T13:41:35.985Z,91.73
2022-11-15T13:42:43.097Z,91.78
2022-11-15T13:43:49.389Z,91.69
2022-11-15T13:45:00.348Z,91.91
2022-11-15T13:46:13.004Z,91.50
2022-11-15T13:47:17.536Z,92.01
2022-11-15T13:48:19.530Z,91.88
2022-11-15T13:49:31.817Z,91.83
2022-11-15T13:50:37.893Z,92.18
2022-11-15T13:51:46.607Z,92.22
2022-11-15T13:52:50.695Z,92.24
2022-11-15T13:53:57.728Z,92.34
2022-11-15T13:55:05.141Z,92.27
2022-11-15T13:56:08.790Z,92.28
2022-11-15T13:57:15.734Z,92.47
2022-11-15T13:58:24.160Z,92.42
2022-11-15T13:59:28.318Z,92.23
2022-11-15T14:00:43.663Z,92.26
2022-11-15T14:01:46.881Z,92.56
2022-11-15T14:02:50.255Z,92.03
2022-11-15T14:03:58.241Z,92.44
2022-11-15T14:05:07.823Z,92.51
2022-11-15T14:06:13.108Z,92.50
2022-11-15T14:07:19.860Z,92.69
2022-11-15T14:08:25.255Z,92.47
2022-11-15T14:09:37.984Z,92.38
2022-11-15T14:10:40.942Z,92.40
2022-11-15T14:11:53.130Z,92.21
2022-11-15T14:12:56.427Z,92.15
2022-11-15T14:14:16.995Z,92.00
2022-11-15T14:15:30.396Z,92.06
2022-11-15T14:16:36.336Z,91.88
2022-11-15T14:17:45.725Z,91.62
2022-11-15T14:18:55.267Z,91.35
2022-11-15T14:19:58.100Z,91.30
2022-11-15T14:21:08.621Z,90.98
2022-11-15T14:22:18.293Z,91.17
2022-11-15T14:23:28.507Z,91.25
2022-11-15T14:24:32.651Z,91.32
2022-11-15T14:25:37.221Z,91.46
2022-11-15T14:26:39.272Z,91.26
2022-11-15T14:27:43.263Z,91.52
2022-11-15T14:28:46.288Z,91.58
2022-11-15T14:29:51.256Z,91.90
2022-11-15T14:30:56.757Z,91.68
2022-11-15T14:32:14.448Z,92.15
2022-11-15T14:33:23.656Z,92.17
2022-11-15T14:34:26.725Z,92.34
2022-11-15T14:35:29.749Z,92.66
2022-11-15T14:36:31.890Z,92.54
2022-11-15T14:37:36.084Z,92.66
2022-11-15T14:38:39.207Z,92.81
2022-11-15T14:39:42.281Z,92.95
2022-11-15T14:40:46.050Z,92.89
2022-11-15T14:41:48.038Z,93.45
2022-11-15T14:42:51.941Z,93.44
2022-11-15T14:43:54.222Z,93.63
2022-11-15T14:44:58.807Z,94.06
2022-11-15T14:46:01.337Z,94.15
2022-11-15T14:47:04.368Z,94.16
2022-11-15T14:48:07.877Z,94.15
2022-11-15T14:49:10.989Z,94.45
2022-11-15T14:50:14.133Z,94.69
2022-11-15T14:51:19.710Z,94.44
2022-11-15T14:52:32.275Z,94.71
2022-11-15T14:53:36.159Z,94.85
2022-11-15T14:54:38.231Z,94.84
2022-11-15T14:55:41.551Z,95.21
2022-11-15T14:56:43.893Z,95.25
2022-11-15T14:57:50.241Z,95.45
2022-11-15T14:58:56.729Z,95.44
2022-11-15T15:00:01.695Z,96.08
2022-11-15T15:01:21.440Z,96.06
2022-11-15T15:02:26.817Z,96.08
2022-11-15T15:03:29.878Z,96.35
2022-11-15T15:04:31.923Z,96.49
2022-11-15T15:05:37.275Z,97.02
2022-11-15T15:06:40.756Z,96.59
2022-11-15T15:07:43.448Z,97.21
2022-11-15T15:08:46.987Z,97.32
2022-11-15T15:09:49.051Z,97.42
2022-11-15T15:10:52.040Z,97.59
2022-11-15T15:11:55.644Z,97.92
2022-11-15T15:12:58.704Z,98.10
2022-11-15T15:14:02.247Z,97.88
2022-11-15T15:15:14.309Z,98.19
2022-11-15T15:16:17.306Z,98.44
2022-11-15T15:17:19.428Z,98.73
2022-11-15T15:18:22.707Z,98.78
2022-11-15T15:19:26.300Z,98.95
2022-11-15T15:20:29.854Z,99.13
2022-11-15T15:21:36.861Z,99.70
2022-11-15T15:22:41.598Z,99.37
2022-11-15T15:23:43.715Z,99.69
2022-11-15T15:24:47.973Z,99.84
2022-11-15T15:25:51.151Z,100.00
2022-11-15T15:26:53.384Z,100.00
2022-11-15T15:27:57.828Z,100.00
2022-11-15T15:29:01.151Z,100.00
2022-11-15T15:30:03.702Z,100.00
2022-11-15T15:31:08.382Z,100.00
2022-11-15T15:32:11.917Z,100.00
2022-11-15T15:33:17.008Z,100.00
2022-11-15T15:34:20.261Z,100.00
2022-11-15T15:35:22.926Z,100.00
2022-11-15T15:36:26.255Z,100.00
2022-11-15T15:37:28.985Z,100.00
2022-11-15T15:38:32.522Z,100.00
2022-11-15T15:39:35.056Z,100.00
2022-11-15T15:40:41.021Z,100.00
2022-11-15T15:41:44.597Z,100.00
2022-11-15T15:42:47.678Z,100.00
2022-11-15T15:43:50.770Z,100.00
2022-11-15T15:44:52.798Z,100.00
2022-11-15T15:45:55.895Z,100.00
2022-11-15T15:47:00.397Z,100.00
2022-11-15T15:48:03.482Z,100.00
2022-11-15T15:49:06.518Z,100.00
2022-11-15T15:50:22.122Z,100.00
2022-11-15T15:51:25.178Z,100.00
2022-11-15T15:52:27.304Z,100.00
2022-11-15T15:53:31.493Z,100.00
2022-11-15T15:54:34.730Z,100.00
2022-11-15T15:55:38.488Z,100.00
2022-11-15T15:56:41.754Z,100.00
2022-11-15T15:57:44.041Z,100.00
2022-11-15T15:58:47.363Z,100.00
2022-11-15T15:59:49.603Z,100.00
2022-11-15T16:00:52.682Z,100.00
2022-11-15T16:01:54.757Z,100.00
2022-11-15T16:02:59.832Z,100.00
2022-11-15T16:04:02.283Z,100.00
2022-11-15T16:05:06.052Z,100.00
2022-11-15T16:06:37.410Z,100.00
2022-11-15T16:07:44.081Z,100.00
2022-11-15T16:09:08.178Z,100.00
2022-11-15T16:10:19.986Z,100.00
2022-11-15T16:11:23.825Z,100.00
2022-11-15T16:12:25.991Z,100.00
2022-11-15T16:13:29.070Z,100.00
2022-11-15T16:14:31.168Z,100.00
2022-11-15T16:15:34.576Z,100.00
2022-11-15T16:16:38.787Z,100.00
2022-11-15T16:17:44.914Z,100.00